createdAt,value
2022-08-16T00:01:40.823Z,20.85
2022-08-16T00:06:44.030Z,20.72
2022-08-16T00:11:45.979Z,20.70
2022-08-16T00:17:05.553Z,20.70
2022-08-16T00:22:13.659Z,20.53
2022-08-16T00:27:17.368Z,20.54
2022-08-16T00:32:19.280Z,20.48
2022-08-16T00:37:24.504Z,20.62
2022-08-16T00:42:30.227Z,20.45
2022-08-16T00:47:33.410Z,20.39
2022-08-16T00:52:35.931Z,20.62
2022-08-16T00:57:58.587Z,20.44
2022-08-16T01:03:00.985Z,20.32
2022-08-16T01:08:35.142Z,20.36
2022-08-16T01:13:26.670Z,20.25
2022-08-16T01:18:40.508Z,20.40
2022-08-16T01:23:58.410Z,20.31
2022-08-16T01:29:06.619Z,20.30
2022-08-16T01:34:25.321Z,20.33
2022-08-16T01:39:29.393Z,20.50
2022-08-16T01:44:37.825Z,20.33
2022-08-16T01:50:40.660Z,20.37
2022-08-16T01:55:04.442Z,20.44
2022-08-16T02:00:19.277Z,20.51
2022-08-16T02:05:23.500Z,20.17
2022-08-16T02:10:25.884Z,20.23
2022-08-16T02:15:28.891Z,20.07
2022-08-16T02:20:33.153Z,20.02
2022-08-16T02:25:52.530Z,19.93
2022-08-16T02:30:57.929Z,19.91
2022-08-16T02:36:00.075Z,19.88
2022-08-16T02:41:09.753Z,19.95
2022-08-16T02:46:13.866Z,19.75
2022-08-16T02:51:17.054Z,19.76
2022-08-16T02:56:20.732Z,19.81
2022-08-16T03:01:36.734Z,19.79
2022-08-16T03:06:47.945Z,19.73
2022-08-16T03:12:10.086Z,19.71
2022-08-16T03:17:18.538Z,19.68
2022-08-16T03:22:29.001Z,19.68
2022-08-16T03:27:33.951Z,19.61
2022-08-16T03:32:38.604Z,19.54
2022-08-16T03:38:01.803Z,19.47
2022-08-16T03:43:20.792Z,19.42
2022-08-16T03:48:36.810Z,19.36
2022-08-16T03:54:01.353Z,19.29
2022-08-16T03:59:05.874Z,19.23
2022-08-16T04:04:32.426Z,19.31
2022-08-16T04:09:35.180Z,19.30
2022-08-16T04:14:37.686Z,19.28
2022-08-16T04:19:51.651Z,19.31
2022-08-16T04:24:59.363Z,19.29
2022-08-16T04:30:13.477Z,19.16
2022-08-16T04:35:34.729Z,19.16
2022-08-16T04:40:36.785Z,19.21
2022-08-16T04:45:39.768Z,19.24
2022-08-16T04:50:49.198Z,19.27
2022-08-16T04:55:54.845Z,19.23
2022-08-16T05:01:00.516Z,19.23
2022-08-16T05:06:05.199Z,19.17
2022-08-16T05:11:10.080Z,19.15
2022-08-16T05:16:20.021Z,19.16
2022-08-16T05:21:28.362Z,19.29
2022-08-16T05:26:40.782Z,19.38
2022-08-16T05:31:48.224Z,19.44
2022-08-16T05:36:57.302Z,19.52
2022-08-16T05:42:05.965Z,19.60
2022-08-16T05:47:08.391Z,19.61
2022-08-16T05:52:13.809Z,19.67
2022-08-16T05:57:20.655Z,19.79
2022-08-16T06:02:29.000Z,19.84
2022-08-16T06:07:32.418Z,19.94
2022-08-16T06:12:55.850Z,20.05
2022-08-16T06:17:59.188Z,20.17
2022-08-16T06:23:11.729Z,20.25
2022-08-16T06:28:36.443Z,20.40
2022-08-16T06:33:44.573Z,20.52
2022-08-16T06:38:52.290Z,20.65
2022-08-16T06:44:20.700Z,20.75
2022-08-16T06:49:24.324Z,20.83
2022-08-16T06:54:26.009Z,20.97
2022-08-16T06:59:29.083Z,21.14
2022-08-16T07:04:37.094Z,21.22
2022-08-16T07:09:54.988Z,21.32
2022-08-16T07:15:00.733Z,21.36
2022-08-16T07:20:35.070Z,21.47
2022-08-16T07:25:31.242Z,21.51
2022-08-16T07:30:39.420Z,21.60
2022-08-16T07:36:07.456Z,21.77
2022-08-16T07:41:15.086Z,21.88
2022-08-16T07:46:37.570Z,21.91
2022-08-16T07:51:49.883Z,21.97
2022-08-16T07:56:57.781Z,22.09
2022-08-16T08:02:00.739Z,22.18
2022-08-16T08:07:02.589Z,22.34
2022-08-16T08:12:31.427Z,22.46
2022-08-16T08:17:42.151Z,22.57
2022-08-16T08:22:48.965Z,22.60
2022-08-16T08:27:51.221Z,22.79
2022-08-16T08:33:01.179Z,22.90
2022-08-16T08:38:16.912Z,23.05
2022-08-16T08:43:41.886Z,23.16
2022-08-16T08:48:46.368Z,23.22
2022-08-16T08:54:07.052Z,23.40
2022-08-16T08:59:20.490Z,23.58
2022-08-16T09:04:26.976Z,23.72
2022-08-16T09:09:33.554Z,23.82
2022-08-16T09:14:38.611Z,23.94
2022-08-16T09:19:41.289Z,24.09
2022-08-16T09:24:51.678Z,24.14
2022-08-16T09:30:00.083Z,24.27
2022-08-16T09:35:02.863Z,24.39
2022-08-16T09:40:31.949Z,24.41
2022-08-16T09:45:28.997Z,24.55
2022-08-16T09:50:36.743Z,24.58
2022-08-16T09:55:44.633Z,24.63
2022-08-16T10:00:46.625Z,24.80
2022-08-16T10:05:48.816Z,24.96
2022-08-16T10:11:09.568Z,25.09
2022-08-16T10:21:20.254Z,25.19
2022-08-16T10:27:19.944Z,25.31
2022-08-16T10:31:46.704Z,25.46
2022-08-16T10:36:55.641Z,25.56
2022-08-16T10:41:57.313Z,25.79
2022-08-16T10:47:00.757Z,26.06
2022-08-16T10:52:18.875Z,26.17
2022-08-16T10:57:24.646Z,26.24
2022-08-16T11:03:37.432Z,26.38
2022-08-16T11:07:53.461Z,26.46
2022-08-16T11:12:56.439Z,26.74
2022-08-16T11:23:20.045Z,26.85
2022-08-16T11:33:52.735Z,27.30
2022-08-16T11:38:57.079Z,27.63
2022-08-16T11:44:00.127Z,27.93
2022-08-16T11:49:08.695Z,27.93
2022-08-16T11:54:20.499Z,28.01
2022-08-16T11:59:24.457Z,28.27
2022-08-16T12:04:31.229Z,28.77
2022-08-16T12:09:32.980Z,29.60
2022-08-16T12:14:35.317Z,30.12
2022-08-16T12:19:38.391Z,30.86
2022-08-16T12:24:40.052Z,31.31
2022-08-16T12:29:41.735Z,31.21
2022-08-16T12:34:48.019Z,30.40
2022-08-16T12:39:56.047Z,30.54
2022-08-16T12:44:57.856Z,30.08
2022-08-16T12:50:00.039Z,30.56
2022-08-16T12:55:02.190Z,31.32
2022-08-16T13:00:26.896Z,31.85
2022-08-16T13:05:45.065Z,32.06
2022-08-16T13:10:57.282Z,31.79
2022-08-16T13:16:02.215Z,31.43
2022-08-16T13:21:06.755Z,31.93
2022-08-16T13:26:08.443Z,32.76
2022-08-16T13:31:11.207Z,32.47
2022-08-16T13:36:38.928Z,32.96
2022-08-16T13:41:38.978Z,33.24
2022-08-16T13:46:41.686Z,33.72
2022-08-16T13:51:43.876Z,34.27
2022-08-16T13:56:45.978Z,34.64
2022-08-16T14:01:54.968Z,34.59
2022-08-16T14:06:58.275Z,33.97
2022-08-16T14:12:00.671Z,33.24
2022-08-16T14:17:02.650Z,35.18
2022-08-16T14:22:14.572Z,35.23
2022-08-16T14:27:21.936Z,35.75
2022-08-16T14:32:32.518Z,36.64
2022-08-16T14:37:36.006Z,36.53
2022-08-16T14:42:37.740Z,36.06
2022-08-16T14:47:39.427Z,36.85
2022-08-16T14:53:03.657Z,37.13
2022-08-16T14:58:05.688Z,37.37
2022-08-16T15:03:09.932Z,36.95
2022-08-16T15:08:11.796Z,36.33
2022-08-16T15:13:13.515Z,36.11
2022-08-16T15:18:23.440Z,36.29
2022-08-16T15:23:31.510Z,36.41
2022-08-16T15:28:38.720Z,36.21
2022-08-16T15:33:56.445Z,36.23
2022-08-16T15:39:06.879Z,35.76
2022-08-16T15:44:23.611Z,35.33
2022-08-16T15:49:37.498Z,35.21
2022-08-16T15:54:52.415Z,34.77
2022-08-16T15:59:57.749Z,34.60
2022-08-16T16:05:17.041Z,34.32
2022-08-16T16:10:18.807Z,33.62
2022-08-16T16:15:23.251Z,33.88
2022-08-16T16:20:27.921Z,33.17
2022-08-16T16:25:30.059Z,32.96
2022-08-16T16:30:34.498Z,32.22
2022-08-16T16:35:46.810Z,32.37
2022-08-16T16:40:53.945Z,32.04
2022-08-16T16:45:56.271Z,31.96
2022-08-16T16:50:58.345Z,31.82
2022-08-16T16:56:00.002Z,31.80
2022-08-16T17:01:01.745Z,31.72
2022-08-16T17:06:09.093Z,31.87
2022-08-16T17:11:13.836Z,31.97
2022-08-16T17:16:18.950Z,31.93
2022-08-16T17:21:21.607Z,31.66
2022-08-16T17:26:29.529Z,31.63
2022-08-16T17:31:40.865Z,31.57
2022-08-16T17:36:50.471Z,31.54
2022-08-16T17:41:57.065Z,31.47
2022-08-16T17:46:58.728Z,31.19
2022-08-16T17:52:00.496Z,31.30
2022-08-16T17:57:02.184Z,31.36
2022-08-16T18:02:42.381Z,31.24
2022-08-16T18:07:26.623Z,31.13
2022-08-16T18:12:44.502Z,30.96
2022-08-16T18:17:53.029Z,30.79
2022-08-16T18:22:54.742Z,30.61
2022-08-16T18:27:56.409Z,30.36
2022-08-16T18:32:58.085Z,30.15
2022-08-16T18:37:59.750Z,29.90
2022-08-16T18:43:06.360Z,29.60
2022-08-16T18:48:08.465Z,29.29
2022-08-16T18:53:11.564Z,29.04
2022-08-16T18:58:14.187Z,28.77
2022-08-16T19:03:22.065Z,28.45
2022-08-16T19:08:23.760Z,28.17
2022-08-16T19:13:26.726Z,27.95
2022-08-16T19:18:28.716Z,27.66
2022-08-16T19:23:38.861Z,27.28
2022-08-16T19:28:51.021Z,26.97
2022-08-16T19:34:01.420Z,26.69
2022-08-16T19:39:06.082Z,26.46
2022-08-16T19:44:07.793Z,26.23
2022-08-16T19:49:09.524Z,25.98
2022-08-16T19:54:17.848Z,25.79
2022-08-16T19:59:22.415Z,25.66
2022-08-16T20:04:41.541Z,25.52
2022-08-16T20:09:43.238Z,25.41
2022-08-16T20:14:44.964Z,25.24
2022-08-16T20:19:46.767Z,25.08
2022-08-16T20:24:49.255Z,24.93
2022-08-16T20:29:50.931Z,24.79
2022-08-16T20:34:53.695Z,24.63
2022-08-16T20:40:28.231Z,24.54
2022-08-16T20:45:17.048Z,24.44
2022-08-16T20:50:18.883Z,24.33
2022-08-16T20:55:20.551Z,24.21
2022-08-16T21:00:22.351Z,24.09
2022-08-16T21:05:31.204Z,23.94
2022-08-16T21:10:33.668Z,24.05
2022-08-16T21:15:36.049Z,24.02
2022-08-16T21:20:37.853Z,23.92
2022-08-16T21:25:46.657Z,23.86
2022-08-16T21:31:00.259Z,23.77
2022-08-16T21:36:01.949Z,23.69
2022-08-16T21:41:04.272Z,23.59
2022-08-16T21:46:06.936Z,23.57
2022-08-16T21:51:11.350Z,23.49
2022-08-16T21:56:17.167Z,23.42
2022-08-16T22:01:19.157Z,23.35
2022-08-16T22:06:20.849Z,23.22
2022-08-16T22:11:23.361Z,22.97
2022-08-16T22:16:25.807Z,22.88
2022-08-16T22:21:27.478Z,22.76
2022-08-16T22:26:31.831Z,22.59
2022-08-16T22:31:34.443Z,22.44
2022-08-16T22:36:36.288Z,22.37
2022-08-16T22:41:38.295Z,22.28
2022-08-16T22:46:40.013Z,22.27
2022-08-16T22:51:41.858Z,22.22
2022-08-16T22:56:44.392Z,22.24
2022-08-16T23:01:46.103Z,22.17
2022-08-16T23:06:47.829Z,22.11
2022-08-16T23:11:49.498Z,22.00
2022-08-16T23:16:51.153Z,21.79
2022-08-16T23:21:53.060Z,21.75
2022-08-16T23:26:54.738Z,21.71
2022-08-16T23:31:58.376Z,21.66
2022-08-16T23:37:00.155Z,21.62
2022-08-16T23:42:01.913Z,21.61
2022-08-16T23:47:05.011Z,21.58
2022-08-16T23:52:07.700Z,21.59
2022-08-16T23:57:09.365Z,21.55
